Time;durP1;ratioP1;P1;durP2;ratioP2;P2;SDS_P1;SDS_P2;PMS_P1;PMS_P2;Temp;Humidity;BMP_temperature;BMP_pressure;BME280_temperature;BME280_humidity;BME280_pressure;Samples;Min_cycle;Max_cycle;Signal;HPM_P1;HPM_P2
2023/07/18 00:01:39;;;;;;;4.33;2.97;;;;;;;20.33;nan;100008.22;5005540;28;20225;-79
2023/07/18 00:04:05;;;;;;;5.93;2.73;;;;;;;20.29;nan;100003.31;5003044;28;20243;-79
2023/07/18 00:06:32;;;;;;;5.67;2.70;;;;;;;20.28;nan;99999.81;4999503;28;20487;-79
2023/07/18 00:08:57;;;;;;;6.30;3.73;;;;;;;20.30;nan;100005.81;5000783;28;20461;-79
2023/07/18 00:11:23;;;;;;;3.70;3.00;;;;;;;20.31;nan;100001.34;5000690;28;20528;-78
2023/07/18 00:13:49;;;;;;;7.23;2.90;;;;;;;20.30;nan;99997.81;5001850;28;20222;-78
2023/07/18 00:16:15;;;;;;;5.93;2.80;;;;;;;20.34;nan;99998.38;4992459;28;20497;-78
2023/07/18 00:18:40;;;;;;;7.33;3.33;;;;;;;20.31;nan;99999.53;4997076;28;20483;-78
2023/07/18 00:21:07;;;;;;;3.53;2.70;;;;;;;20.28;nan;100004.28;5000876;28;20251;-78
2023/07/18 00:23:33;;;;;;;4.90;3.70;;;;;;;20.24;nan;100008.28;5000482;28;20538;-78
2023/07/18 00:25:59;;;;;;;5.43;2.87;;;;;;;20.13;nan;100003.16;4997815;28;20990;-78
2023/07/18 00:28:25;;;;;;;6.23;3.10;;;;;;;20.03;nan;100006.69;4998701;28;20478;-78
2023/07/18 00:30:50;;;;;;;5.60;3.00;;;;;;;19.96;nan;100005.63;4996539;28;20235;-78
2023/07/18 00:33:15;;;;;;;3.57;2.50;;;;;;;19.94;nan;100009.44;4998780;28;20231;-78
2023/07/18 00:35:43;;;;;;;5.43;2.80;;;;;;;19.92;nan;100006.91;4999368;28;20729;-78
2023/07/18 00:38:11;;;;;;;5.20;2.80;;;;;;;19.90;nan;100000.88;4999706;28;20517;-78
2023/07/18 00:40:40;;;;;;;2.70;2.20;;;;;;;19.87;nan;100006.50;4994832;28;20980;-78
2023/07/18 00:43:14;;;;;;;2.80;2.47;;;;;;;19.86;nan;99996.84;5002757;28;20451;-78
2023/07/18 00:45:41;;;;;;;3.87;2.57;;;;;;;19.86;nan;99986.16;5002480;28;20468;-78
2023/07/18 00:48:07;;;;;;;4.37;2.67;;;;;;;19.82;nan;99995.44;5005393;28;20476;-78
2023/07/18 00:50:33;;;;;;;4.10;2.53;;;;;;;19.66;nan;99994.25;5032729;28;20536;-78
2023/07/18 00:53:00;;;;;;;3.17;2.40;;;;;;;19.45;nan;99990.94;5044923;28;20221;-78
2023/07/18 00:55:27;;;;;;;3.33;3.03;;;;;;;19.23;nan;99990.31;5038898;28;20507;-78
2023/07/18 00:57:53;;;;;;;3.93;3.20;;;;;;;19.06;nan;99991.00;5042047;28;20476;-78
2023/07/18 01:00:22;;;;;;;3.60;2.83;;;;;;;18.95;nan;99992.00;5024171;28;20583;-78
2023/07/18 01:02:49;;;;;;;3.20;2.27;;;;;;;18.86;nan;99976.91;5027405;28;20469;-79
2023/07/18 01:05:17;;;;;;;7.47;2.53;;;;;;;18.73;nan;99979.81;5043777;28;20460;-78
2023/07/18 01:07:43;;;;;;;2.77;2.43;;;;;;;18.59;nan;99988.22;5040824;28;20819;-78
2023/07/18 01:10:16;;;;;;;2.40;2.20;;;;;;;18.49;nan;99987.38;5038397;28;20559;-78
2023/07/18 01:12:42;;;;;;;3.20;2.33;;;;;;;18.40;nan;99986.41;5040514;28;20480;-78
2023/07/18 01:15:12;;;;;;;3.83;2.47;;;;;;;18.35;nan;99980.66;5038919;28;21052;-78
2023/07/18 01:17:41;;;;;;;3.63;2.43;;;;;;;18.42;nan;99981.78;5024164;28;20460;-78
2023/07/18 01:20:11;;;;;;;3.70;2.10;;;;;;;18.51;nan;99980.09;5043430;28;20483;-78
2023/07/18 01:22:36;;;;;;;3.27;2.60;;;;;;;18.58;nan;99982.06;5025423;28;20508;-78
2023/07/18 01:25:02;;;;;;;5.17;2.40;;;;;;;18.68;nan;99979.41;5043211;28;20598;-78
2023/07/18 01:27:27;;;;;;;2.30;2.10;;;;;;;18.77;nan;99983.94;5042348;28;20238;-78
2023/07/18 01:29:53;;;;;;;7.97;2.80;;;;;;;18.84;nan;99980.69;5040719;28;20224;-78
2023/07/18 01:32:18;;;;;;;3.37;2.40;;;;;;;18.89;nan;99978.44;5024046;28;20238;-78
2023/07/18 01:34:44;;;;;;;3.88;2.92;;;;;;;18.94;nan;99977.03;5038454;28;20473;-78
2023/07/18 01:37:10;;;;;;;3.50;3.20;;;;;;;18.97;nan;99971.41;5041159;28;20207;-78
2023/07/18 01:39:35;;;;;;;3.60;2.10;;;;;;;18.98;nan;99964.28;5023700;28;20637;-78
2023/07/18 01:42:02;;;;;;;5.17;3.20;;;;;;;18.95;nan;99968.06;5022789;28;20716;-78
2023/07/18 01:44:27;;;;;;;3.43;2.80;;;;;;;18.95;nan;99962.72;5043311;28;20478;-78
2023/07/18 01:46:53;;;;;;;4.07;2.03;;;;;;;18.98;nan;99964.28;5040090;28;20220;-78
2023/07/18 01:49:18;;;;;;;3.90;2.47;;;;;;;18.99;nan;99957.97;5021684;28;20711;-78
2023/07/18 01:51:44;;;;;;;4.60;2.10;;;;;;;18.95;nan;99957.41;5040810;28;20285;-78
2023/07/18 01:54:09;;;;;;;3.57;3.00;;;;;;;18.88;nan;99958.16;5042090;28;20812;-78
2023/07/18 01:56:35;;;;;;;3.83;2.17;;;;;;;18.76;nan;99968.91;5039606;28;20211;-78
2023/07/18 01:59:00;;;;;;;3.07;2.77;;;;;;;18.69;nan;99961.63;5023242;28;20210;-78
2023/07/18 02:01:26;;;;;;;3.37;2.30;;;;;;;18.56;nan;99956.59;5036573;28;20459;-78
2023/07/18 02:03:52;;;;;;;2.67;2.00;;;;;;;18.42;nan;99949.03;5020775;28;20490;-78
2023/07/18 02:06:17;;;;;;;4.33;2.53;;;;;;;18.29;nan;99949.31;5041580;28;20207;-78
2023/07/18 02:08:42;;;;;;;4.23;2.63;;;;;;;18.15;nan;99958.53;5041848;28;20210;-78
2023/07/18 02:11:08;;;;;;;2.53;2.33;;;;;;;18.01;nan;99953.59;5036277;28;20226;-78
2023/07/18 02:13:33;;;;;;;4.50;2.83;;;;;;;17.90;nan;99950.09;5040673;28;20212;-78
2023/07/18 02:15:59;;;;;;;3.07;2.40;;;;;;;17.87;nan;99945.03;5039330;28;20235;-78
2023/07/18 02:18:24;;;;;;;3.10;2.80;;;;;;;17.91;nan;99940.28;5041640;28;20225;-78
2023/07/18 02:20:49;;;;;;;3.60;2.60;;;;;;;17.98;nan;99937.91;5023051;28;20423;-78
2023/07/18 02:23:15;;;;;;;4.07;3.77;;;;;;;18.01;nan;99948.25;5038369;28;20222;-78
2023/07/18 02:25:40;;;;;;;2.63;1.93;;;;;;;18.01;nan;99945.59;5039686;28;20670;-78
2023/07/18 02:28:07;;;;;;;3.30;2.40;;;;;;;18.00;nan;99952.75;5042493;28;20225;-78
2023/07/18 02:30:33;;;;;;;6.53;2.23;;;;;;;17.96;nan;99943.38;5019019;28;20219;-78
2023/07/18 02:32:58;;;;;;;5.13;1.90;;;;;;;17.91;nan;99941.13;5016884;28;20491;-78
2023/07/18 02:35:24;;;;;;;4.10;2.20;;;;;;;17.88;nan;99943.22;5016840;28;20440;-78
2023/07/18 02:37:49;;;;;;;3.20;2.40;;;;;;;17.85;nan;99941.69;5039282;28;20571;-78
2023/07/18 02:40:17;;;;;;;4.63;2.93;;;;;;;17.84;nan;99942.63;5038571;28;20549;-78
2023/07/18 02:42:42;;;;;;;3.33;2.00;;;;;;;17.82;nan;99939.31;5040462;28;20216;-78
2023/07/18 02:45:08;;;;;;;4.07;2.17;;;;;;;17.81;nan;99932.28;5041318;28;20924;-78
2023/07/18 02:47:34;;;;;;;3.00;1.77;;;;;;;17.76;nan;99937.13;5038527;28;20814;-79
2023/07/18 02:49:59;;;;;;;3.27;2.97;;;;;;;17.64;nan;99932.91;5036669;28;20487;-79
2023/07/18 02:52:25;;;;;;;3.10;2.27;;;;;;;17.48;nan;99934.25;5036969;28;20239;-78
2023/07/18 02:54:50;;;;;;;4.30;2.77;;;;;;;17.39;nan;99937.72;5038315;28;20199;-78
2023/07/18 02:57:17;;;;;;;2.50;2.30;;;;;;;17.31;nan;99936.69;5039491;28;20809;-78
2023/07/18 02:59:42;;;;;;;3.27;1.83;;;;;;;17.24;nan;99936.38;5017247;28;20768;-78
2023/07/18 03:02:08;;;;;;;3.77;2.00;;;;;;;17.16;nan;99933.53;5037967;28;20552;-78
2023/07/18 03:04:33;;;;;;;3.00;2.30;;;;;;;17.09;nan;99940.34;5019008;28;20586;-78
2023/07/18 03:07:00;;;;;;;3.40;2.40;;;;;;;17.07;nan;99939.66;5026551;28;20233;-78
2023/07/18 03:09:27;;;;;;;4.20;2.17;;;;;;;17.03;nan;99933.75;5038612;28;20225;-78
2023/07/18 03:11:52;;;;;;;5.37;2.10;;;;;;;17.00;nan;99934.84;5038559;28;20539;-78
2023/07/18 03:14:18;;;;;;;4.17;2.90;;;;;;;16.98;nan;99931.47;5037922;28;20478;-78
2023/07/18 03:16:45;;;;;;;3.00;2.40;;;;;;;16.93;nan;99925.75;5038805;28;20225;-78
2023/07/18 03:19:11;;;;;;;3.30;2.50;;;;;;;16.89;nan;99926.97;5021456;28;20346;-78
2023/07/18 03:21:36;;;;;;;10.63;3.63;;;;;;;16.83;nan;99913.41;5039399;28;20649;-78
2023/07/18 03:24:07;;;;;;;3.40;2.50;;;;;;;16.79;nan;99920.75;5015296;28;20218;-78
2023/07/18 03:26:37;;;;;;;2.87;2.57;;;;;;;16.78;nan;99924.38;5020932;28;20486;-78
2023/07/18 03:29:06;;;;;;;3.40;2.63;;;;;;;16.76;nan;99937.72;5036663;28;20497;-78
2023/07/18 03:31:35;;;;;;;3.03;2.22;;;;;;;16.76;nan;99944.84;5030303;28;20975;-78
2023/07/18 03:34:04;;;;;;;9.90;4.00;;;;;;;16.81;nan;99932.09;5029912;28;20314;-78
2023/07/18 03:36:30;;;;;;;4.88;3.00;;;;;;;16.93;nan;99927.53;5028229;28;20441;-78
2023/07/18 03:38:55;;;;;;;3.53;2.73;;;;;;;17.02;nan;99932.91;5032040;28;20608;-78
2023/07/18 03:41:24;;;;;;;2.10;1.90;;;;;;;17.12;nan;99932.13;5030110;28;20754;-78
2023/07/18 03:43:49;;;;;;;3.47;2.00;;;;;;;17.20;nan;99935.81;5023677;28;20460;-79
2023/07/18 03:46:15;;;;;;;3.83;2.77;;;;;;;17.27;nan;99929.97;5028478;28;20279;-78
2023/07/18 03:48:40;;;;;;;5.10;2.40;;;;;;;17.29;nan;99923.56;5035418;28;20207;-78
2023/07/18 03:51:06;;;;;;;2.43;2.10;;;;;;;17.35;nan;99932.81;5036336;28;20414;-78
2023/07/18 03:53:32;;;;;;;3.03;2.10;;;;;;;17.39;nan;99924.44;5038480;28;20239;-78
2023/07/18 03:56:06;;;;;;;4.03;3.60;;;;;;;17.42;nan;99921.50;5039702;28;20223;-78
2023/07/18 03:58:33;;;;;;;5.43;2.50;;;;;;;17.38;nan;99921.91;5038143;28;21042;-78
2023/07/18 04:00:58;;;;;;;4.97;2.30;;;;;;;17.36;nan;99922.06;5025760;28;20477;-78
2023/07/18 04:03:26;;;;;;;4.80;2.30;;;;;;;17.40;nan;99918.16;5034337;28;20497;-78
2023/07/18 04:05:52;;;;;;;4.50;2.60;;;;;;;17.41;nan;99919.81;5036137;28;20964;-78
2023/07/18 04:08:18;;;;;;;2.50;2.10;;;;;;;17.39;nan;99913.81;5037328;28;20593;-78
2023/07/18 04:10:44;;;;;;;5.67;2.13;;;;;;;17.37;nan;99907.78;5037778;28;20694;-78
2023/07/18 04:13:09;;;;;;;4.20;2.30;;;;;;;17.38;nan;99904.16;5036587;28;20457;-79
2023/07/18 04:15:35;;;;;;;7.90;2.93;;;;;;;17.46;nan;99914.94;5038265;28;20207;-78
2023/07/18 04:18:00;;;;;;;2.67;2.47;;;;;;;17.56;nan;99911.50;5039766;28;20488;-78
2023/07/18 04:20:26;;;;;;;3.90;2.17;;;;;;;17.65;nan;99906.19;5037498;28;20243;-78
2023/07/18 04:22:51;;;;;;;4.23;1.73;;;;;;;17.74;nan;99906.34;5037150;28;20241;-78
2023/07/18 04:25:16;;;;;;;4.40;2.30;;;;;;;17.76;nan;99907.91;5038425;28;20225;-78
2023/07/18 04:27:44;;;;;;;3.57;2.27;;;;;;;17.78;nan;99903.31;5038978;28;20334;-78
2023/07/18 04:30:10;;;;;;;3.00;2.30;;;;;;;17.84;nan;99907.25;5037336;28;20216;-78
2023/07/18 04:32:35;;;;;;;2.73;1.97;;;;;;;17.91;nan;99903.91;5037063;28;20484;-79
2023/07/18 04:35:01;;;;;;;4.73;2.60;;;;;;;18.01;nan;99900.44;5034916;28;20434;-79
2023/07/18 04:37:28;;;;;;;2.07;1.83;;;;;;;18.02;nan;99899.47;5034409;28;20740;-78
2023/07/18 04:39:53;;;;;;;2.47;2.00;;;;;;;18.00;nan;99894.28;5037536;28;20439;-78
2023/07/18 04:42:18;;;;;;;4.40;1.97;;;;;;;17.97;nan;99891.06;5037873;28;20863;-78
2023/07/18 04:44:44;;;;;;;2.80;2.13;;;;;;;17.91;nan;99893.28;5034051;28;20220;-79
2023/07/18 04:47:09;;;;;;;6.10;2.67;;;;;;;17.84;nan;99891.31;5036068;28;20285;-78
2023/07/18 04:49:35;;;;;;;5.00;2.33;;;;;;;17.76;nan;99893.78;5038547;28;20235;-78
2023/07/18 04:52:00;;;;;;;2.80;2.03;;;;;;;17.70;nan;99885.38;5040926;28;20216;-79
2023/07/18 04:54:26;;;;;;;2.70;2.10;;;;;;;17.69;nan;99888.19;5036890;28;20213;-79
2023/07/18 04:56:53;;;;;;;2.20;2.00;;;;;;;17.75;nan;99886.81;5037513;28;20199;-79
2023/07/18 04:59:19;;;;;;;4.60;2.40;;;;;;;18.00;nan;99891.63;5036174;28;20694;-78
2023/07/18 05:01:44;;;;;;;5.00;2.53;;;;;;;18.38;nan;99889.94;5041150;28;20998;-78
2023/07/18 05:04:09;;;;;;;2.20;2.00;;;;;;;18.85;nan;99883.88;5034540;28;20226;-78
2023/07/18 05:06:35;;;;;;;3.75;2.30;;;;;;;19.36;nan;99883.44;5033583;28;20469;-79
2023/07/18 05:09:01;;;;;;;3.40;2.03;;;;;;;19.82;nan;99878.13;5033620;28;20893;-79
2023/07/18 05:11:26;;;;;;;2.63;2.20;;;;;;;20.34;nan;99871.16;5039330;28;20243;-79
2023/07/18 05:13:52;;;;;;;2.37;1.90;;;;;;;20.78;nan;99873.00;5017122;28;20209;-79
2023/07/18 05:16:17;;;;;;;2.30;2.00;;;;;;;21.10;nan;99861.69;5033286;28;20698;-79
2023/07/18 05:18:42;;;;;;;5.30;3.40;;;;;;;21.37;nan;99860.66;5035664;28;20207;-79
2023/07/18 05:21:08;;;;;;;6.93;2.47;;;;;;;21.52;nan;99866.25;5035800;28;20278;-79
2023/07/18 05:23:34;;;;;;;3.77;1.97;;;;;;;21.65;nan;99868.44;5036338;28;20199;-79
2023/07/18 05:25:59;;;;;;;5.27;2.17;;;;;;;21.76;nan;99867.28;5038954;28;20773;-79
2023/07/18 05:28:24;;;;;;;2.27;1.90;;;;;;;22.04;nan;99859.84;5036132;28;20738;-79
2023/07/18 05:30:50;;;;;;;5.07;1.93;;;;;;;22.41;nan;99869.22;5035555;28;20881;-79
2023/07/18 05:33:15;;;;;;;3.00;1.90;;;;;;;22.87;nan;99859.66;5033455;28;20213;-79
2023/07/18 05:35:41;;;;;;;2.80;1.77;;;;;;;23.29;nan;99844.31;5036403;28;20554;-79
2023/07/18 05:38:07;;;;;;;3.20;2.17;;;;;;;23.47;nan;99839.53;5037327;28;20492;-79
2023/07/18 05:40:32;;;;;;;3.80;1.90;;;;;;;23.80;nan;99836.69;5040675;28;20713;-79
2023/07/18 05:42:58;;;;;;;2.57;2.10;;;;;;;24.23;nan;99845.09;5037843;28;20241;-79
2023/07/18 05:45:23;;;;;;;4.13;2.30;;;;;;;24.61;nan;99839.75;5038592;28;20714;-79
2023/07/18 05:47:48;;;;;;;1.77;1.40;;;;;;;24.99;nan;99835.16;5039078;28;20222;-79
2023/07/18 05:50:14;;;;;;;1.90;1.57;;;;;;;25.25;nan;99834.72;5040943;28;20365;-82
2023/07/18 05:52:40;;;;;;;1.80;1.70;;;;;;;25.43;nan;99834.28;5045420;28;20218;-82
2023/07/18 05:55:06;;;;;;;3.37;1.70;;;;;;;25.60;nan;99841.13;5043659;28;20207;-82
2023/07/18 05:57:32;;;;;;;3.50;2.00;;;;;;;25.80;nan;99825.19;5046764;28;20292;-82
2023/07/18 05:59:57;;;;;;;3.83;2.10;;;;;;;26.00;nan;99821.91;5047091;28;20451;-82
2023/07/18 06:02:23;;;;;;;5.67;1.93;;;;;;;26.10;nan;99818.88;5045503;28;20537;-82
2023/07/18 06:04:48;;;;;;;2.80;1.80;;;;;;;26.24;nan;99816.09;5048722;28;20223;-82
2023/07/18 06:07:15;;;;;;;4.93;1.80;;;;;;;26.52;nan;99812.66;5049507;28;20223;-83
2023/07/18 06:09:41;;;;;;;4.33;1.77;;;;;;;26.58;nan;99811.84;5045803;28;20223;-83
2023/07/18 06:12:07;;;;;;;4.50;2.07;;;;;;;26.66;nan;99819.78;5048393;28;20594;-82
2023/07/18 06:14:33;;;;;;;5.67;1.70;;;;;;;26.85;nan;99814.72;5026602;28;20729;-83
2023/07/18 06:16:58;;;;;;;3.40;1.83;;;;;;;27.12;nan;99813.81;5042926;28;20830;-82
2023/07/18 06:19:24;;;;;;;5.00;1.77;;;;;;;27.35;nan;99813.56;5046155;28;20573;-82
2023/07/18 06:21:49;;;;;;;2.90;2.03;;;;;;;27.47;nan;99811.09;5046804;28;20398;-82
2023/07/18 06:24:16;;;;;;;2.10;1.90;;;;;;;27.63;nan;99820.69;5047915;28;20707;-82
2023/07/18 06:26:48;;;;;;;2.60;2.27;;;;;;;27.67;nan;99810.31;5046007;28;20252;-82
2023/07/18 06:29:15;;;;;;;2.00;1.43;;;;;;;27.71;nan;99811.56;5039299;28;20486;-83
2023/07/18 06:31:42;;;;;;;6.93;1.63;;;;;;;27.85;nan;99804.38;5041492;28;20459;-82
2023/07/18 06:34:07;;;;;;;4.47;2.67;;;;;;;27.89;nan;99803.72;5038865;28;20515;-81
2023/07/18 06:36:32;;;;;;;3.87;1.77;;;;;;;27.90;nan;99796.47;5036332;28;20459;-81
2023/07/18 06:38:58;;;;;;;2.13;1.47;;;;;;;28.18;nan;99798.97;5036217;28;20347;-81
2023/07/18 06:41:23;;;;;;;2.20;1.50;;;;;;;28.41;nan;99791.28;5037955;28;20261;-83
2023/07/18 06:43:49;;;;;;;2.30;1.90;;;;;;;28.60;nan;99788.81;5040311;28;20220;-82
2023/07/18 06:46:15;;;;;;;2.17;1.97;;;;;;;28.76;nan;99788.34;5039301;28;20596;-83
2023/07/18 06:48:41;;;;;;;3.00;1.87;;;;;;;29.03;nan;99782.84;5041126;28;20302;-82
2023/07/18 06:51:06;;;;;;;3.10;1.50;;;;;;;29.27;nan;99782.16;5038888;28;21149;-82
2023/07/18 06:53:32;;;;;;;2.73;2.00;;;;;;;29.45;nan;99778.72;5042947;28;20463;-82
2023/07/18 06:55:58;;;;;;;1.90;1.70;;;;;;;29.56;nan;99771.78;5046618;28;20288;-82
2023/07/18 06:58:23;;;;;;;4.73;3.50;;;;;;;29.75;nan;99776.28;5040471;28;20537;-82
2023/07/18 07:00:50;;;;;;;3.57;2.03;;;;;;;29.90;nan;99756.19;5051160;28;20221;-82
2023/07/18 07:03:15;;;;;;;3.87;1.70;;;;;;;30.11;nan;99757.66;5040167;28;20515;-82
2023/07/18 07:05:42;;;;;;;8.27;2.33;;;;;;;30.16;nan;99764.09;5040692;28;20483;-82
2023/07/18 07:08:12;;;;;;;4.50;2.23;;;;;;;30.19;nan;99766.38;5040433;28;20220;-82
2023/07/18 07:10:42;;;;;;;1.97;1.77;;;;;;;30.06;nan;99769.19;5039902;28;20616;-82
2023/07/18 07:13:09;;;;;;;3.97;1.80;;;;;;;29.87;nan;99759.34;5037841;28;20932;-82
2023/07/18 07:15:35;;;;;;;5.10;2.20;;;;;;;29.80;nan;99756.69;5040706;28;20475;-82
2023/07/18 07:18:02;;;;;;;3.73;2.47;;;;;;;29.81;nan;99758.31;5040445;28;20898;-82
2023/07/18 07:20:28;;;;;;;4.03;1.93;;;;;;;29.89;nan;99757.22;5041096;28;20670;-83
2023/07/18 07:22:54;;;;;;;3.03;1.93;;;;;;;29.99;nan;99749.44;5021183;28;20988;-83
2023/07/18 07:25:20;;;;;;;3.30;2.03;;;;;;;30.18;nan;99753.84;5038504;28;20480;-83
2023/07/18 07:27:46;;;;;;;4.10;1.87;;;;;;;30.31;nan;99733.16;5039520;28;20613;-83
2023/07/18 07:30:15;;;;;;;3.20;2.13;;;;;;;30.49;nan;99726.91;5037853;28;20234;-82
2023/07/18 07:32:45;;;;;;;1.73;1.50;;;;;;;30.60;nan;99729.72;5036782;28;20483;-82
2023/07/18 07:35:11;;;;;;;2.92;2.10;;;;;;;30.71;nan;99724.59;5042302;28;20489;-82
2023/07/18 07:37:37;;;;;;;5.57;2.37;;;;;;;30.88;nan;99722.94;5037009;28;20608;-83
2023/07/18 07:40:09;;;;;;;2.70;2.50;;;;;;;31.19;nan;99724.66;5018812;28;20631;-82
2023/07/18 07:42:34;;;;;;;3.60;1.90;;;;;;;31.41;nan;99732.31;5033108;28;20477;-82
2023/07/18 07:45:00;;;;;;;3.10;2.60;;;;;;;31.53;nan;99738.59;5036226;28;20499;-82
2023/07/18 07:47:25;;;;;;;3.60;2.27;;;;;;;31.48;nan;99733.84;5038855;28;20483;-83
2023/07/18 07:49:50;;;;;;;5.03;2.63;;;;;;;31.47;nan;99729.47;5040476;28;20490;-83
2023/07/18 07:52:16;;;;;;;2.63;1.97;;;;;;;31.30;nan;99736.59;5040874;28;20650;-82
2023/07/18 07:54:44;;;;;;;5.23;2.23;;;;;;;31.18;nan;99727.56;5041144;28;20283;-82
2023/07/18 07:57:10;;;;;;;4.70;2.77;;;;;;;31.21;nan;99724.41;5039938;28;20408;-82
2023/07/18 07:59:36;;;;;;;4.87;2.27;;;;;;;31.31;nan;99714.63;5036172;28;20571;-82
2023/07/18 08:02:01;;;;;;;2.10;1.57;;;;;;;31.07;nan;99716.44;5036136;28;20665;-82
2023/07/18 08:04:27;;;;;;;2.40;1.70;;;;;;;30.75;nan;99714.94;5036656;28;20714;-82
2023/07/18 08:06:55;;;;;;;3.63;2.00;;;;;;;30.78;nan;99714.47;5038010;28;20320;-82
2023/07/18 08:09:22;;;;;;;4.50;2.03;;;;;;;30.82;nan;99715.72;5040709;28;20231;-83
2023/07/18 08:11:48;;;;;;;3.00;2.50;;;;;;;30.82;nan;99716.56;5037258;28;20605;-82
2023/07/18 08:14:14;;;;;;;3.00;1.63;;;;;;;30.71;nan;99717.28;5036593;28;20534;-83
2023/07/18 08:16:40;;;;;;;4.67;1.90;;;;;;;30.72;nan;99713.50;5035315;28;20213;-82
2023/07/18 08:19:05;;;;;;;2.30;1.90;;;;;;;30.70;nan;99707.47;5039937;28;20980;-82
2023/07/18 08:21:31;;;;;;;4.50;1.70;;;;;;;30.82;nan;99715.72;5035439;28;20798;-82
2023/07/18 08:23:56;;;;;;;2.10;1.87;;;;;;;30.88;nan;99714.00;5036425;28;20218;-83
2023/07/18 08:26:22;;;;;;;1.97;1.77;;;;;;;30.96;nan;99706.34;5035920;28;20236;-82
2023/07/18 08:28:47;;;;;;;2.50;2.03;;;;;;;30.90;nan;99701.84;5038885;28;20228;-83
2023/07/18 08:31:13;;;;;;;3.07;2.23;;;;;;;30.79;nan;99705.31;5039048;28;20221;-82
2023/07/18 08:33:38;;;;;;;3.23;2.20;;;;;;;30.71;nan;99694.78;5035167;28;20362;-82
2023/07/18 08:36:05;;;;;;;4.95;2.42;;;;;;;30.42;nan;99691.75;5036267;28;20430;-82
2023/07/18 08:38:30;;;;;;;4.30;1.80;;;;;;;30.32;nan;99708.53;5033559;28;20204;-82
2023/07/18 08:40:58;;;;;;;5.90;2.00;;;;;;;30.33;nan;99714.78;5037210;28;20975;-82
2023/07/18 08:43:24;;;;;;;4.80;1.90;;;;;;;30.36;nan;99706.22;5034062;28;20213;-82
2023/07/18 08:45:51;;;;;;;2.83;2.30;;;;;;;30.33;nan;99702.06;5040149;28;20557;-82
2023/07/18 08:48:17;;;;;;;2.27;2.03;;;;;;;30.24;nan;99699.88;5038987;28;20522;-82
2023/07/18 08:50:44;;;;;;;2.53;1.90;;;;;;;29.90;nan;99694.72;5036060;28;20479;-83
2023/07/18 08:53:09;;;;;;;2.60;1.87;;;;;;;29.65;nan;99688.47;5038104;28;20203;-82
2023/07/18 08:55:36;;;;;;;4.90;1.70;;;;;;;29.63;nan;99688.69;5038658;28;20524;-82
2023/07/18 08:58:02;;;;;;;3.80;2.40;;;;;;;29.79;nan;99671.09;5037916;28;20203;-82
2023/07/18 09:00:28;;;;;;;4.57;2.70;;;;;;;29.94;nan;99670.72;5035509;28;20698;-82
2023/07/18 09:02:54;;;;;;;3.57;1.50;;;;;;;29.92;nan;99673.69;5042750;28;20489;-82
2023/07/18 09:05:37;;;;;;;3.03;1.67;;;;;;;29.75;nan;99707.75;5027834;28;20202;-81
2023/07/18 09:08:04;;;;;;;2.30;1.70;;;;;;;29.51;nan;99731.84;5040992;28;20976;-82
2023/07/18 09:10:30;;;;;;;2.57;1.67;;;;;;;29.28;nan;99755.94;5043833;28;20478;-82
2023/07/18 09:13:02;;;;;;;3.03;2.07;;;;;;;29.09;nan;99736.88;5040547;28;20473;-82
2023/07/18 09:15:28;;;;;;;3.57;1.70;;;;;;;28.88;nan;99692.00;5039684;28;20513;-81
2023/07/18 09:17:55;;;;;;;3.07;2.10;;;;;;;28.60;nan;99715.84;5044048;28;20824;-80
2023/07/18 09:20:22;;;;;;;2.43;1.70;;;;;;;28.39;nan;99798.78;5044302;28;20568;-80
2023/07/18 09:22:48;;;;;;;3.00;1.63;;;;;;;28.16;nan;99766.75;5045677;28;20477;-80
2023/07/18 09:25:14;;;;;;;3.77;2.10;;;;;;;27.90;nan;99783.81;5045162;28;20545;-81
2023/07/18 09:27:40;;;;;;;2.93;1.40;;;;;;;27.69;nan;99802.84;5027079;28;20580;-80
2023/07/18 09:30:07;;;;;;;2.50;1.90;;;;;;;27.56;nan;99793.66;5045341;28;20475;-81
2023/07/18 09:32:32;;;;;;;2.40;1.60;;;;;;;27.46;nan;99771.63;5044497;28;20313;-81
2023/07/18 09:34:59;;;;;;;3.03;1.50;;;;;;;27.33;nan;99715.81;5044118;28;20549;-81
2023/07/18 09:37:25;;;;;;;3.40;2.00;;;;;;;26.95;nan;99617.56;5042004;28;20266;-81
2023/07/18 09:39:51;;;;;;;3.60;2.10;;;;;;;26.62;nan;99608.34;5043574;28;20630;-81
2023/07/18 09:42:18;;;;;;;3.33;1.60;;;;;;;26.83;nan;99652.38;5040640;28;20495;-82
2023/07/18 09:44:48;;;;;;;2.37;1.50;;;;;;;27.26;nan;99681.75;5041261;28;20533;-81
2023/07/18 09:47:14;;;;;;;2.33;1.60;;;;;;;27.70;nan;99645.25;5039336;28;20478;-82
2023/07/18 09:49:45;;;;;;;3.83;1.90;;;;;;;28.09;nan;99608.50;5040649;28;20871;-82
2023/07/18 09:52:11;;;;;;;3.57;1.50;;;;;;;28.21;nan;99587.88;5041136;28;20470;-82
2023/07/18 09:54:38;;;;;;;3.30;2.20;;;;;;;28.29;nan;99559.81;5041968;28;20541;-82
2023/07/18 09:57:05;;;;;;;4.67;1.87;;;;;;;28.40;nan;99537.53;5039568;28;20437;-82
2023/07/18 09:59:31;;;;;;;2.37;1.70;;;;;;;28.32;nan;99527.78;5042484;28;20994;-82
2023/07/18 10:01:57;;;;;;;3.50;2.13;;;;;;;28.16;nan;99544.47;5041830;28;20448;-82
2023/07/18 10:04:24;;;;;;;5.00;2.20;;;;;;;28.23;nan;99569.59;5044519;28;20969;-82
2023/07/18 10:06:51;;;;;;;2.10;1.90;;;;;;;28.27;nan;99578.09;5041942;28;20477;-82
2023/07/18 10:09:17;;;;;;;1.67;1.57;;;;;;;28.39;nan;99596.13;5039637;28;21080;-83
2023/07/18 10:11:58;;;;;;;1.90;1.30;;;;;;;28.55;nan;99608.38;5041645;28;20800;-82
2023/07/18 10:14:47;;;;;;;5.27;2.70;;;;;;;28.60;nan;99607.72;5041296;28;20548;-82
2023/07/18 10:17:35;;;;;;;3.60;2.00;;;;;;;28.52;nan;99600.69;5039405;28;20975;-78
2023/07/18 10:20:05;;;;;;;3.00;1.60;;;;;;;28.28;nan;99601.38;5041975;28;21114;-79
2023/07/18 10:22:32;;;;;;;5.30;2.70;;;;;;;27.98;nan;99694.50;5041058;28;20664;-79
2023/07/18 10:25:05;;;;;;;3.47;1.60;;;;;;;27.59;nan;99770.84;5038023;28;20481;-78
2023/07/18 10:27:44;;;;;;;2.57;1.87;;;;;;;27.23;nan;99803.53;5039550;28;20233;-79
2023/07/18 10:30:15;;;;;;;4.00;2.43;;;;;;;26.94;nan;99864.72;5039636;28;20493;-80
2023/07/18 10:32:43;;;;;;;5.87;2.40;;;;;;;26.78;nan;99935.13;5039082;28;20674;-80
2023/07/18 10:35:12;;;;;;;3.60;2.37;;;;;;;26.65;nan;100006.75;5036825;28;20440;-79
2023/07/18 10:37:43;;;;;;;4.53;2.00;;;;;;;26.42;nan;100016.81;5041061;28;20488;-81
2023/07/18 10:40:08;;;;;;;3.57;2.20;;;;;;;26.18;nan;100024.22;5038311;28;20481;-80
2023/07/18 10:42:35;;;;;;;2.60;1.90;;;;;;;26.00;nan;100019.22;5038410;28;20470;-79
2023/07/18 10:45:05;;;;;;;2.07;1.37;;;;;;;25.91;nan;100036.50;5039824;28;20720;-80
2023/07/18 10:47:32;;;;;;;3.37;2.50;;;;;;;25.86;nan;100036.22;5038146;28;20518;-80
2023/07/18 10:49:58;;;;;;;3.47;2.00;;;;;;;25.78;nan;100012.06;5036242;28;20491;-79
2023/07/18 10:52:23;;;;;;;3.80;2.50;;;;;;;25.72;nan;99940.19;5040226;28;20466;-80
2023/07/18 10:54:49;;;;;;;2.67;2.20;;;;;;;25.34;nan;99819.31;5035591;28;20207;-76
2023/07/18 10:57:15;;;;;;;4.27;2.80;;;;;;;24.92;nan;99716.84;5034624;28;20366;-77
2023/07/18 10:59:44;;;;;;;7.07;2.50;;;;;;;24.74;nan;99659.97;5037311;28;20319;-78
2023/07/18 11:02:12;;;;;;;4.77;2.73;;;;;;;24.54;nan;99634.72;5041596;28;20459;-77
2023/07/18 11:04:38;;;;;;;3.27;2.03;;;;;;;24.27;nan;99628.97;5038853;28;20481;-77
2023/07/18 11:07:04;;;;;;;3.53;2.50;;;;;;;24.23;nan;99647.31;5037370;28;20228;-79
2023/07/18 11:09:30;;;;;;;2.83;2.20;;;;;;;24.22;nan;99668.94;5036048;28;20853;-78
2023/07/18 11:12:00;;;;;;;4.10;2.53;;;;;;;24.22;nan;99695.78;5038726;28;20473;-80
2023/07/18 11:14:36;;;;;;;4.13;2.20;;;;;;;24.23;nan;99727.00;5038012;28;20484;-78
2023/07/18 11:17:02;;;;;;;4.90;2.50;;;;;;;24.24;nan;99694.59;5035808;28;21023;-79
2023/07/18 11:19:29;;;;;;;3.80;2.43;;;;;;;24.29;nan;99678.75;5036100;28;20506;-80
2023/07/18 11:21:55;;;;;;;3.70;2.40;;;;;;;24.35;nan;99685.25;5039415;28;20809;-80
2023/07/18 11:24:23;;;;;;;3.20;2.23;;;;;;;24.44;nan;99721.78;5037029;28;20232;-80
2023/07/18 11:27:18;;;;;;;3.50;2.53;;;;;;;24.53;nan;99745.84;5037186;28;20215;-79
2023/07/18 11:30:00;;;;;;;4.40;1.87;;;;;;;24.48;nan;99733.78;5034047;28;20908;-80
2023/07/18 11:32:42;;;;;;;7.53;2.80;;;;;;;24.38;nan;99697.47;5036859;28;20457;-79
2023/07/18 11:35:07;;;;;;;6.37;3.27;;;;;;;24.34;nan;99612.97;5032104;28;20466;-79
2023/07/18 11:37:35;;;;;;;4.80;3.40;;;;;;;24.12;nan;99526.19;5036918;28;20792;-78
2023/07/18 11:40:00;;;;;;;6.80;2.97;;;;;;;23.77;nan;99413.28;5036410;28;20218;-79
2023/07/18 11:42:49;;;;;;;5.37;2.40;;;;;;;23.48;nan;99194.28;5034714;28;20478;-79
2023/07/18 11:45:20;;;;;;;4.27;2.53;;;;;;;23.33;nan;99183.59;5038826;28;20663;-80
2023/07/18 11:47:53;;;;;;;3.20;2.63;;;;;;;23.27;nan;99224.56;5035781;28;20481;-80